• Join FlightAware (Why Join?)
  • Login
  • US Flag 
01:35PM EDT


 

Airport Tracker/Info


-or-


 

Live Flight TrackerFlight Track Log ✈ UAL5887 ✈ 25-Apr-2013 ✈ KORD - CYOW

Flight Track Log - Related Links

Times and Time Zones

All times are in EDT time to prevent confusion due to time zone crossing. See the UAL5887 flight status page for this flight to view local times or setup timezone preferences in your user account.

Time Position Orientation Groundspeed Altitude Reporting Facility
EDT Latitude Longitude Course Direction KTS MPH feet Rate Location/Type
10:43AM 42.0167 -87.9333 48° Northeast 177 204 2,400  Level Chicago TRACON
10:44AM 42.0500 -87.8833 48° Northeast 248 285 4,200 1,440 Climbing Chicago TRACON
10:45AM 42.1325 -87.7906 40° Northeast 261 300 6,100 1,860 Climbing Chicago Center
10:46AM 42.1689 -87.7064 60° Northeast 266 306 8,900 2,340 Climbing Chicago Center
10:47AM 42.1883 -87.5992 76° East 291 335 11,000 1,740 Climbing Chicago Center
10:48AM 42.2078 -87.4844 77° East 313 360 12,500 1,440 Climbing Chicago Center
10:49AM 42.2300 -87.3575 77° East 346 398 14,000 1,260 Climbing Chicago Center
10:50AM 42.2581 -87.1892 77° East 381 438 15,200 1,080 Climbing Chicago Center
10:51AM 42.2814 -87.0392 78° East 405 466 16,300 960 Climbing Chicago Center
10:52AM 42.2864 -86.8769 88° East 431 496 17,300 840 Climbing Chicago Center
10:53AM 42.2931 -86.7136 87° East 435 501 18,100 840 Climbing Chicago Center
10:54AM 42.3000 -86.5408 87° East 449 517 19,100 1,080 Climbing Chicago Center
10:55AM 42.3072 -86.3469 87° East 455 524 20,400 1,200 Climbing Chicago Center
10:57AM 42.3125 -86.1761 88° East 458 527 21,600 1,140 Climbing Chicago Center
10:58AM 42.3150 -86.0039 89° East 461 531 22,800 1,140 Climbing Chicago Center
10:59AM 42.3125 -85.8300 91° East 465 535 24,000 1,080 Climbing Chicago Center
11:00AM 42.3097 -85.6603 91° East 460 529 25,100 1,200 Climbing Chicago Center
11:01AM 42.3067 -85.4550 91° East 458 527 26,600 1,200 Climbing Chicago Center
11:02AM 42.3069 -85.3036 90° East 461 531 27,400 1,020 Climbing Cleveland Center
11:03AM 42.3028 -85.1486 92° East 454 522 28,600 1,140 Climbing Cleveland Center
11:04AM 42.3008 -84.9858 91° East 448 516 29,700 1,020 Climbing Cleveland Center
11:05AM 42.2969 -84.8114 92° East 448 516 30,700 1,020 Climbing Cleveland Center
11:06AM 42.2894 -84.6169 93° East 458 527 31,800 1,020 Climbing Cleveland Center
11:07AM 42.2892 -84.4428 90° East 463 533 32,800 960 Climbing Cleveland Center
11:08AM 42.3136 -84.2675 79° East 463 533 33,800 960 Climbing Cleveland Center
11:09AM 42.3378 -84.0919 79° East 468 539 34,800 600 Climbing Cleveland Center
11:10AM 42.3639 -83.9133 79° East 473 544 35,000 60 Climbing Cleveland Center
11:11AM 42.3900 -83.7264 79° East 484 557 35,000  Level Cleveland Center
11:12AM 42.4200 -83.5450 77° East 498 573 35,000  Level Cleveland Center
11:13AM 42.4636 -83.3808 70° East 498 573 35,000  Level Cleveland Center
11:14AM 42.5117 -83.2056 70° East 498 573 35,000  Level Cleveland Center
11:15AM 42.5572 -83.0328 70° East 492 566 35,000  Level Cleveland Center
11:16AM 42.6025 -82.8567 71° East 492 566 35,000  Level Cleveland Center
11:17AM 42.6494 -82.6778 70° East 492 566 35,000  Level Cleveland Center
11:18AM 42.6964 -82.4986 70° East 498 573 35,000  Level Cleveland Center
11:19AM 42.7431 -82.3189 70° East 498 573 35,000  Level Cleveland Center
11:20AM 42.7894 -82.1392 71° East 503 579 35,000  Level Cleveland Center
11:21AM 42.8353 -81.9619 71° East 503 579 35,000  Level Cleveland Center
11:22AM 42.8792 -81.7817 72° East 503 579 35,000  Level Cleveland Center
11:22AM 42.9000 -81.6833 74° East 500 575 35,000  Level Toronto Center
11:23AM 42.9333 -81.5000 76° East 490 564 35,000  Level Toronto Center
11:24AM 42.9667 -81.3500 73° East 490 564 35,000  Level Toronto Center
11:25AM 43.0167 -81.1667 69° East 490 564 35,000  Level Toronto Center
11:26AM 43.0833 -81.0000 61° Northeast 490 564 35,000  Level Toronto Center
11:27AM 43.1333 -80.8500 65° Northeast 490 564 35,000  Level Toronto Center
11:28AM 43.2333 -80.6667 53° Northeast 490 564 35,000  Level Toronto Center
11:29AM 43.2833 -80.5000 68° East 490 564 35,000  Level Toronto Center
11:30AM 43.3500 -80.3500 59° Northeast 490 564 35,000  Level Toronto Center
11:31AM 43.4167 -80.1833 61° Northeast 490 564 35,000  Level Toronto Center
11:32AM 43.4833 -80.0167 61° Northeast 490 564 35,000  Level Toronto Center
11:33AM 43.5500 -79.8667 58° Northeast 490 564 35,000  Level Toronto Center
11:34AM 43.6167 -79.7000 61° Northeast 490 564 35,000  Level Toronto Center
11:35AM 43.6667 -79.5333 67° East 480 552 35,000  Level Toronto Center
11:36AM 43.7167 -79.3500 69° East 490 564 35,000  Level Toronto Center
11:37AM 43.7667 -79.2000 65° Northeast 490 564 35,000  Level Toronto Center
11:38AM 43.8167 -79.0167 69° East 490 564 35,000  Level Toronto Center
11:39AM 43.8833 -78.8167 65° Northeast 490 564 35,000  Level Toronto Center
11:40AM 43.9333 -78.6667 65° Northeast 490 564 35,000  Level Toronto Center
11:41AM 43.9667 -78.4667 77° East 500 575 35,000  Level Toronto Center
11:42AM 44.0167 -78.2833 69° East 500 575 35,000  Level Toronto Center
11:43AM 44.1000 -78.1167 55° Northeast 500 575 35,000  Level Toronto Center
11:44AM 44.1667 -77.9667 58° Northeast 500 575 35,000 -120 Level Toronto Center
11:45AM 44.2667 -77.7500 57° Northeast 500 575 34,700 -660 Descending Montreal Center
11:46AM 44.3167 -77.6333 59° Northeast 510 587 33,700 -2,100 Descending Toronto Center
11:47AM 44.4000 -77.4667 55° Northeast 510 587 31,600 -2,400 Descending Toronto Center
11:48AM 44.4667 -77.3000 61° Northeast 510 587 29,000 -2,580 Descending Toronto Center
11:48AM 44.5167 -77.2333 44° Northeast 500 575 27,700 -2,820 Descending Montreal Center
11:49AM 44.5833 -77.0667 61° Northeast 500 575 24,800 -2,700 Descending Montreal Center
11:50AM 44.6500 -76.9333 55° Northeast 480 552 22,400 -2,340 Descending Montreal Center
11:51AM 44.7333 -76.8000 49° Northeast 440 506 20,200 -2,220 Descending Montreal Center
11:52AM 44.7833 -76.6500 65° Northeast 410 472 18,000 -2,040 Descending Montreal Center
11:53AM 44.8167 -76.5833 55° Northeast 410 472 17,200 -1,800 Descending Toronto Center
11:54AM 44.8833 -76.4333 58° Northeast 400 460 15,400 -1,320 Descending Toronto Center
11:55AM 44.9500 -76.3167 51° Northeast 390 449 14,600 -780 Descending Toronto Center
11:55AM 44.9833 -76.2833 35° Northeast 390 449 14,300 -540 Descending Montreal Center
11:56AM 45.0500 -76.1500 55° Northeast 380 437 13,800 -720 Descending Montreal Center
11:57AM 45.1167 -76.0333 51° Northeast 370 426 12,900 -1,200 Descending Montreal Center
11:58AM 45.1667 -75.9500 50° Northeast 340 391 11,400 -1,500 Descending Montreal Center
11:59AM 45.1667 -75.8333 90° East 310 357 10,000 -1,500 Descending Montreal Center
12:00PM 45.1833 -75.7000 80° East 290 334 8,500 -1,680 Descending Montreal Center
12:01PM 45.2333 -75.6167 50° Northeast 270 311 6,700 -1,260 Descending Montreal Center
12:02PM 45.2667 -75.5167 65° Northeast 260 299 6,000 -420 Descending Montreal Center
12:03PM 45.3167 -75.4500 43° Northeast 260 299 5,900 -600 Descending Montreal Center
12:04PM 45.3500 -75.3667 60° Northeast 220 253 4,800 -1,020 Descending Montreal Center
12:05PM 45.4000 -75.3667 360° North 200 230 3,900 -960 Descending Montreal Center
12:06PM 45.4000 -75.4500 270° West 210 242 2,900 -780 Descending Montreal Center
12:07PM 45.3667 -75.5167 235° Southwest 200 230 2,400 -660 Descending Montreal Center
12:08PM 45.3333 -75.5667 227° Southwest 160 184 1,600 -780 Descending Montreal Center
12:09PM 45.3167 -75.6167 245° Southwest 120 138 900 -660 Descending Montreal Center
12:10PM 45.3000 -75.6667 245° Southwest 120 138 300 -600 Descending Montreal Center